Thursday, February 22, 2018, 12:09 PM EST
Back to Local

KPQI, Presque Isle

Location: Presque Isle, ME, United States Lat: 46.683
Local Time: 12:09 PM EST (17:09 GMT) Lon: -68.05
Time Zone: US/Eastern Elev: 534 ft

Show me the last for .
Show Decoded

2018-02-22 10:56 METAR KPQI 221556Z AUTO 35010KT 10SM CLR M07/M16 A3066 RMK AO2 SLP429 T10721161
                 FZRANO =
2018-02-22 09:56 METAR KPQI 221456Z AUTO 31008KT 10SM CLR M08/M17 A3067 RMK AO2 SLP435 T10831167
                 51009 FZRANO =
2018-02-22 08:56 METAR KPQI 221356Z AUTO 34007KT 10SM CLR M09/M17 A3066 RMK AO2 SLP429 T10941167
                 FZRANO =
2018-02-22 07:56 METAR KPQI 221256Z AUTO 35007KT 10SM CLR M11/M17 A3066 RMK AO2 SLP430 T11061167
                 FZRANO =
2018-02-22 06:56 METAR KPQI 221156Z AUTO 00000KT 10SM CLR M11/M16 A3064 RMK AO2 SLP425 T11111161
                 11056 21111 51028 FZRANO =
2018-02-22 05:56 METAR KPQI 221056Z AUTO 00000KT 10SM CLR M11/M16 A3062 RMK AO2 SLP415 T11061156
                 FZRANO =
2018-02-22 04:56 METAR KPQI 220956Z AUTO 32009KT 10SM CLR M09/M16 A3059 RMK AO2 SLP407 T10941161
                 FZRANO =
2018-02-22 03:56 METAR KPQI 220856Z AUTO 35005KT 10SM CLR M09/M15 A3056 RMK AO2 SLP396 T10891150
                 53034 FZRANO =
2018-02-22 02:56 METAR KPQI 220756Z AUTO 32005KT 10SM CLR M08/M15 A3052 RMK AO2 SLP384 T10781150
                 FZRANO TSNO =
2018-02-22 01:56 METAR KPQI 220656Z AUTO 31015G20KT 10SM CLR M07/M15 A3049 RMK AO2 SLP372
                 T10671150 FZRANO =
2018-02-22 00:56 METAR KPQI 220556Z AUTO 33010G18KT 10SM CLR M06/M14 A3046 RMK AO2 PRESRR SLP361
                 T10561139 10078 21056 53058 FZRANO =
2018-02-21 23:56 METAR KPQI 220456Z AUTO 33012KT 10SM CLR M04/M12 A3040 RMK AO2 SLP339 T10391122
                 401111039 FZRANO =
2018-02-21 22:56 METAR KPQI 220356Z AUTO 32014G20KT 10SM CLR M02/M12 A3034 RMK AO2 SLP320
                 T10221117 FZRANO =
2018-02-21 21:56 METAR KPQI 220256Z AUTO 30012G27KT 10SM CLR M01/M09 A3029 RMK AO2 PK WND
                 33030/0215 SLP303 T10061089 51076 FZRANO =
2018-02-21 20:56 METAR KPQI 220156Z AUTO 33016G26KT 10SM OVC039 03/M05 A3022 RMK AO2 PK WND
                 33026/0148 SLP280 T00281050 =
2018-02-21 19:56 METAR KPQI 220056Z AUTO 34011KT 10SM FEW044 04/00 A3016 RMK AO2 SLP257 T00390000
                 =
2018-02-21 18:56 METAR KPQI 212356Z AUTO 28015KT 10SM SCT100 08/03 A3006 RMK AO2 PRESRR SLP226
                 60000 T00780028 10111 20044 51058 =
2018-02-21 17:56 METAR KPQI 212256Z AUTO 26011KT 10SM OVC085 09/04 A3001 RMK AO2 SLP209 T00890039
                 =
2018-02-21 16:56 METAR KPQI 212156Z AUTO 26009KT 10SM FEW039 BKN049 OVC060 11/07 A2996 RMK AO2
                 RAB13E39 PRESRR SLP189 P0000 T01060072 =
2018-02-21 16:44 METAR KPQI 212144Z AUTO 26011G25KT 10SM FEW013 BKN040 OVC047 11/08 A2994 RMK AO2
                 RAB13E39 P0000 =
2018-02-21 16:12 METAR KPQI 212112Z AUTO 32003KT 4SM BR BKN018 OVC023 07/07 A2991 RMK AO2 PRESRR
                 =
2018-02-21 16:02 METAR KPQI 212102Z AUTO 00000KT 1 3/4SM BR BKN022 OVC070 06/05 A2990 RMK AO2 VIS
                 1/2V5 PRESRR =
2018-02-21 15:56 METAR KPQI 212056Z AUTO 00000KT 4SM BR BKN024 BKN055 OVC070 06/06 A2989 RMK AO2
                 SLP165 T00610056 53003 =
2018-02-21 14:56 METAR KPQI 211956Z AUTO 17003KT 10SM BKN045 OVC055 05/04 A2987 RMK AO2 SLP158
                 T00500044 =
2018-02-21 14:21 METAR KPQI 211921Z AUTO 15007KT 10SM SCT026 OVC042 05/04 A2986 RMK AO2 =
2018-02-21 13:56 METAR KPQI 211856Z AUTO 16007KT 10SM OVC028 04/04 A2987 RMK AO2 SLP160 T00440039
                 =
2018-02-21 13:24 METAR KPQI 211824Z AUTO 16009KT 10SM OVC028 04/03 A2986 RMK AO2 =
2018-02-21 12:56 METAR KPQI 211756Z AUTO 16006KT 10SM OVC030 04/03 A2988 RMK AO2 SLP163 T00440033
                 10044 20000 58033 =
2018-02-21 12:49 METAR KPQI 211749Z AUTO 16009KT 10SM OVC030 04/03 A2988 RMK AO2 =

Support USWX by starting your Amazon purchase here.